Time;durP1;ratioP1;P1;durP2;ratioP2;P2;SDS_P1;SDS_P2;PMS_P1;PMS_P2;Temp;Humidity;BMP_temperature;BMP_pressure;BME280_temperature;BME280_humidity;BME280_pressure;Samples;Min_cycle;Max_cycle;Signal;HPM_P1;HPM_P2
2023/03/30 00:01:10;;;;;;;2.37;2.03;;;14.90;63.80;;;;;;933212;148;27422;-74
2023/03/30 00:03:37;;;;;;;3.50;2.00;;;14.90;63.90;;;;;;928324;149;27436;-74
2023/03/30 00:06:02;;;;;;;5.47;2.20;;;14.90;63.90;;;;;;927610;149;27390;-74
2023/03/30 00:08:28;;;;;;;2.83;2.07;;;14.90;63.80;;;;;;927476;149;27402;-74
2023/03/30 00:11:07;;;;;;;4.03;1.98;;;14.90;63.90;;;;;;926218;149;27504;-74
2023/03/30 00:13:34;;;;;;;3.60;2.25;;;15.00;63.90;;;;;;926707;149;27338;-74
2023/03/30 00:16:00;;;;;;;3.52;2.15;;;14.90;63.70;;;;;;924751;149;27497;-74
2023/03/30 00:18:28;;;;;;;5.97;2.27;;;15.00;63.90;;;;;;927853;149;27383;-74
2023/03/30 00:20:53;;;;;;;3.20;2.15;;;14.90;63.70;;;;;;927164;149;27432;-74
2023/03/30 00:23:20;;;;;;;1.62;1.52;;;14.90;63.70;;;;;;926513;149;27487;-74
2023/03/30 00:25:46;;;;;;;2.20;1.80;;;14.90;63.70;;;;;;925506;149;27413;-74
2023/03/30 00:28:13;;;;;;;4.97;1.95;;;14.90;64.60;;;;;;927415;149;27460;-74
2023/03/30 00:30:40;;;;;;;5.10;2.17;;;14.90;63.80;;;;;;928109;149;27360;-74
2023/03/30 00:33:06;;;;;;;3.37;1.90;;;14.90;63.80;;;;;;925363;149;27323;-74
2023/03/30 00:35:33;;;;;;;3.72;2.10;;;14.90;63.90;;;;;;926684;149;27429;-74
2023/03/30 00:38:02;;;;;;;1.98;1.85;;;14.90;63.90;;;;;;925729;149;27523;-74
2023/03/30 00:40:29;;;;;;;3.80;1.80;;;14.90;64.00;;;;;;924804;149;27450;-74
2023/03/30 00:42:58;;;;;;;2.42;1.67;;;14.90;64.00;;;;;;924460;149;27367;-75
2023/03/30 00:45:27;;;;;;;1.87;1.62;;;14.90;64.00;;;;;;926786;149;27307;-74
2023/03/30 00:47:55;;;;;;;3.10;1.75;;;14.90;64.00;;;;;;924816;149;27381;-74
2023/03/30 00:50:22;;;;;;;2.70;1.80;;;14.90;64.00;;;;;;926877;149;27345;-74
2023/03/30 00:52:47;;;;;;;2.37;1.63;;;14.80;63.90;;;;;;928327;149;27395;-74
2023/03/30 00:55:14;;;;;;;2.95;1.95;;;14.80;64.00;;;;;;927012;149;27437;-74
2023/03/30 00:57:41;;;;;;;2.10;1.87;;;14.80;64.10;;;;;;926385;149;27329;-74
2023/03/30 01:00:07;;;;;;;2.55;1.77;;;14.90;64.20;;;;;;904764;153;27526;-74
2023/03/30 01:02:34;;;;;;;2.55;1.90;;;14.80;64.10;;;;;;926611;149;27492;-74
2023/03/30 01:05:00;;;;;;;3.17;2.12;;;14.80;64.20;;;;;;926341;149;27413;-74
2023/03/30 01:07:27;;;;;;;3.33;1.90;;;14.80;64.40;;;;;;926571;149;27287;-74
2023/03/30 01:09:53;;;;;;;2.10;1.77;;;14.80;64.20;;;;;;925299;149;27431;-74
2023/03/30 01:12:20;;;;;;;2.45;1.85;;;14.80;64.20;;;;;;925845;149;27395;-74
2023/03/30 01:14:47;;;;;;;3.58;2.10;;;14.80;64.30;;;;;;927733;149;27384;-74
2023/03/30 01:17:16;;;;;;;2.92;2.12;;;14.80;64.30;;;;;;927561;149;27333;-74
2023/03/30 01:20:08;;;;;;;3.02;2.70;;;14.80;64.30;;;;;;924604;149;27454;-74
2023/03/30 01:22:36;;;;;;;2.70;2.10;;;14.80;64.40;;;;;;925817;149;27386;-74
2023/03/30 01:25:37;;;;;;;2.83;2.00;;;14.80;64.30;;;;;;925548;149;27331;-74
2023/03/30 01:28:30;;;;;;;2.02;1.82;;;14.80;64.30;;;;;;925939;149;27462;-75
2023/03/30 01:31:24;;;;;;;2.60;1.55;;;14.70;64.20;;;;;;925937;149;27427;-75
2023/03/30 01:34:06;;;;;;;2.27;1.80;;;14.70;64.30;;;;;;927719;149;27308;-75
2023/03/30 01:37:10;;;;;;;6.87;2.00;;;14.70;64.40;;;;;;925457;149;27830;-74
2023/03/30 01:40:01;;;;;;;5.60;1.92;;;14.70;64.50;;;;;;925809;149;27581;-74
2023/03/30 01:42:30;;;;;;;3.72;1.80;;;14.70;64.50;;;;;;929042;149;27344;-75
2023/03/30 01:44:59;;;;;;;2.87;1.87;;;14.70;64.60;;;;;;927285;149;27933;-74
2023/03/30 01:47:53;;;;;;;1.85;1.45;;;14.70;64.70;;;;;;926998;149;27351;-74
2023/03/30 01:50:26;;;;;;;3.35;2.20;;;14.70;64.90;;;;;;926805;149;27399;-75
2023/03/30 01:53:00;;;;;;;3.37;1.95;;;14.70;64.70;;;;;;928247;149;27415;-74
2023/03/30 01:55:30;;;;;;;2.83;1.90;;;14.80;64.90;;;;;;928948;149;27265;-74
2023/03/30 01:57:57;;;;;;;2.30;2.10;;;14.80;64.90;;;;;;925948;149;27336;-74
2023/03/30 02:00:23;;;;;;;2.65;1.72;;;14.80;65.70;;;;;;911486;149;27462;-74
2023/03/30 02:02:58;;;;;;;5.77;2.13;;;14.80;65.00;;;;;;928285;149;27943;-74
2023/03/30 02:05:25;;;;;;;2.67;1.93;;;14.80;65.00;;;;;;911180;152;27441;-74
2023/03/30 02:07:54;;;;;;;4.60;2.00;;;14.80;65.00;;;;;;928149;149;27387;-74
2023/03/30 02:10:21;;;;;;;4.62;2.20;;;14.90;65.10;;;;;;923255;149;27435;-74
2023/03/30 02:12:47;;;;;;;2.92;1.90;;;14.90;65.10;;;;;;926951;149;27370;-74
2023/03/30 02:15:14;;;;;;;2.73;1.90;;;14.90;65.10;;;;;;927232;149;27338;-74
2023/03/30 02:17:41;;;;;;;5.37;2.00;;;14.90;65.10;;;;;;926983;149;27348;-74
2023/03/30 02:20:11;;;;;;;3.65;2.45;;;14.90;65.10;;;;;;927383;149;27456;-74
2023/03/30 02:22:36;;;;;;;3.87;1.93;;;14.90;65.20;;;;;;927257;149;27435;-74
2023/03/30 02:25:03;;;;;;;4.33;1.90;;;14.90;65.20;;;;;;926279;149;27457;-74
2023/03/30 02:27:30;;;;;;;2.33;1.90;;;15.00;65.30;;;;;;926176;149;27302;-74
2023/03/30 02:29:56;;;;;;;3.65;2.55;;;15.00;65.40;;;;;;924940;149;27396;-74
2023/03/30 02:32:22;;;;;;;2.62;2.12;;;14.90;65.40;;;;;;927102;149;27357;-74
2023/03/30 02:35:22;;;;;;;2.87;2.20;;;14.90;65.40;;;;;;927218;149;27327;-74
2023/03/30 02:37:52;;;;;;;3.67;2.10;;;15.00;65.50;;;;;;928020;149;27456;-75
2023/03/30 02:40:33;;;;;;;6.22;3.17;;;14.90;65.30;;;;;;927402;149;27395;-75
2023/03/30 02:43:18;;;;;;;7.75;3.58;;;14.90;65.50;;;;;;927147;149;27370;-75
2023/03/30 02:46:00;;;;;;;7.37;3.33;;;14.90;65.50;;;;;;926164;149;27467;-75
2023/03/30 02:48:41;;;;;;;4.47;2.73;;;14.90;65.40;;;;;;914706;152;27445;-75
2023/03/30 02:51:14;;;;;;;6.55;2.30;;;14.90;65.60;;;;;;923846;149;27338;-75
2023/03/30 02:53:44;;;;;;;3.60;2.00;;;14.90;65.60;;;;;;926993;149;27401;-75
2023/03/30 02:56:10;;;;;;;4.80;1.82;;;14.90;65.60;;;;;;926605;149;27412;-75
2023/03/30 02:58:36;;;;;;;5.12;2.15;;;14.90;65.70;;;;;;927411;149;27417;-75
2023/03/30 03:01:02;;;;;;;3.08;2.10;;;15.00;65.70;;;;;;927681;149;27412;-75
2023/03/30 03:03:30;;;;;;;2.92;2.58;;;15.00;65.70;;;;;;915106;149;27382;-75
2023/03/30 03:05:56;;;;;;;4.97;2.15;;;15.00;65.60;;;;;;902313;153;27425;-75
2023/03/30 03:08:26;;;;;;;3.40;1.95;;;15.00;65.60;;;;;;927189;149;27327;-75
2023/03/30 03:10:52;;;;;;;2.98;2.12;;;15.10;65.60;;;;;;928630;149;27430;-75
2023/03/30 03:13:20;;;;;;;5.85;2.12;;;15.10;65.60;;;;;;928421;149;27356;-75
2023/03/30 03:15:45;;;;;;;5.40;2.40;;;15.10;65.50;;;;;;928656;149;27472;-75
2023/03/30 03:18:11;;;;;;;3.50;2.22;;;15.20;65.50;;;;;;925999;149;27403;-75
2023/03/30 03:20:38;;;;;;;3.75;2.55;;;15.20;65.60;;;;;;926599;149;27458;-75
2023/03/30 03:23:05;;;;;;;4.53;2.40;;;15.20;65.60;;;;;;927874;149;27348;-75
2023/03/30 03:25:31;;;;;;;5.22;2.70;;;15.30;65.60;;;;;;924210;149;27492;-75
2023/03/30 03:27:58;;;;;;;4.70;2.80;;;15.30;65.50;;;;;;926372;149;27481;-75
2023/03/30 03:30:24;;;;;;;3.30;2.40;;;15.30;65.50;;;;;;928445;149;27417;-75
2023/03/30 03:32:51;;;;;;;4.42;2.17;;;15.30;65.40;;;;;;927198;149;27368;-75
2023/03/30 03:35:17;;;;;;;5.40;2.27;;;15.30;65.40;;;;;;926485;149;27317;-75
2023/03/30 03:37:44;;;;;;;4.33;2.50;;;15.40;65.50;;;;;;925344;149;27387;-75
2023/03/30 03:40:11;;;;;;;4.80;2.52;;;15.40;65.50;;;;;;927769;149;27339;-75
2023/03/30 03:42:37;;;;;;;4.45;2.35;;;15.40;65.50;;;;;;927125;149;27319;-75
2023/03/30 03:45:04;;;;;;;2.83;2.45;;;15.40;65.60;;;;;;926678;149;27336;-75
2023/03/30 03:47:33;;;;;;;5.08;2.22;;;15.40;65.70;;;;;;926738;149;27391;-75
2023/03/30 03:50:02;;;;;;;2.55;1.92;;;15.40;65.70;;;;;;924378;149;27635;-75
2023/03/30 03:52:26;;;;;;;2.72;2.12;;;15.40;65.70;;;;;;927263;149;27470;-75
2023/03/30 03:54:53;;;;;;;5.22;2.42;;;15.30;65.70;;;;;;929267;149;27477;-74
2023/03/30 03:57:22;;;;;;;3.72;2.10;;;15.30;65.70;;;;;;927672;149;27436;-75
2023/03/30 03:59:46;;;;;;;4.30;2.40;;;15.30;65.70;;;;;;926343;149;27391;-75
2023/03/30 04:02:13;;;;;;;3.98;2.35;;;15.30;65.70;;;;;;925464;149;27369;-75
2023/03/30 04:04:39;;;;;;;5.40;2.62;;;15.30;65.70;;;;;;926178;149;27366;-75
2023/03/30 04:07:06;;;;;;;4.33;2.62;;;15.30;65.70;;;;;;926368;149;27333;-75
2023/03/30 04:09:32;;;;;;;7.42;2.58;;;15.30;65.80;;;;;;927115;149;27488;-75
2023/03/30 04:11:59;;;;;;;5.35;2.87;;;15.30;65.90;;;;;;927277;149;27464;-75
2023/03/30 04:14:26;;;;;;;6.72;2.95;;;15.30;65.90;;;;;;925175;149;27420;-75
2023/03/30 04:16:56;;;;;;;7.92;4.12;;;15.20;65.90;;;;;;927162;149;27401;-75
2023/03/30 04:19:19;;;;;;;7.12;4.15;;;15.20;66.00;;;;;;926987;149;27323;-75
2023/03/30 04:21:48;;;;;;;5.85;2.83;;;15.20;66.00;;;;;;925487;149;27452;-75
2023/03/30 04:24:12;;;;;;;5.62;2.67;;;15.20;66.10;;;;;;927712;149;27331;-74
2023/03/30 04:26:40;;;;;;;3.65;2.15;;;15.20;66.20;;;;;;927695;149;27303;-75
2023/03/30 04:29:06;;;;;;;3.22;2.22;;;15.10;66.40;;;;;;926652;149;27352;-75
2023/03/30 04:31:34;;;;;;;4.97;2.40;;;15.10;66.50;;;;;;926732;149;27392;-75
2023/03/30 04:34:01;;;;;;;5.60;3.00;;;15.10;66.80;;;;;;927641;149;27467;-75
2023/03/30 04:36:26;;;;;;;5.10;2.22;;;15.10;67.10;;;;;;927318;149;27284;-75
2023/03/30 04:38:58;;;;;;;4.27;2.53;;;15.10;67.30;;;;;;928402;149;27350;-75
2023/03/30 04:41:36;;;;;;;5.10;2.33;;;15.10;67.50;;;;;;925709;149;27460;-74
2023/03/30 04:43:53;;;;;;;4.22;2.25;;;15.10;67.70;;;;;;924106;149;27360;-75
2023/03/30 04:46:20;;;;;;;7.58;2.52;;;15.10;67.70;;;;;;926732;149;27337;-75
2023/03/30 04:48:46;;;;;;;7.17;2.55;;;15.00;67.60;;;;;;926873;149;27434;-74
2023/03/30 04:51:13;;;;;;;4.60;2.50;;;15.00;67.90;;;;;;928994;149;27360;-75
2023/03/30 04:53:40;;;;;;;4.20;2.30;;;15.00;68.10;;;;;;927188;149;27475;-75
2023/03/30 04:56:06;;;;;;;4.33;2.60;;;15.00;68.20;;;;;;928215;149;27317;-75
2023/03/30 04:58:33;;;;;;;9.30;3.30;;;15.00;68.50;;;;;;927817;149;27378;-75
2023/03/30 05:00:59;;;;;;;4.25;2.40;;;15.00;68.50;;;;;;927809;149;27446;-75
2023/03/30 05:03:26;;;;;;;5.55;2.25;;;14.90;68.70;;;;;;928717;149;27403;-74
2023/03/30 05:05:53;;;;;;;7.25;2.83;;;14.90;68.90;;;;;;932105;149;27418;-74
2023/03/30 05:08:19;;;;;;;4.22;2.58;;;14.90;69.00;;;;;;932703;149;27473;-74
2023/03/30 05:10:46;;;;;;;4.50;2.33;;;14.90;69.20;;;;;;933521;149;27282;-74
2023/03/30 05:13:12;;;;;;;6.13;2.30;;;14.90;69.30;;;;;;934532;149;27881;-74
2023/03/30 05:15:39;;;;;;;10.08;3.10;;;15.00;69.80;;;;;;931886;149;27376;-74
2023/03/30 05:18:06;;;;;;;4.77;2.40;;;15.00;70.10;;;;;;934842;149;27290;-74
2023/03/30 05:20:32;;;;;;;4.60;3.00;;;15.00;70.30;;;;;;933317;149;27339;-74
2023/03/30 05:22:59;;;;;;;6.97;2.55;;;15.00;70.30;;;;;;933890;149;27368;-75
2023/03/30 05:25:26;;;;;;;5.65;2.55;;;15.10;70.70;;;;;;934045;149;27365;-75
2023/03/30 05:27:52;;;;;;;5.03;2.12;;;15.10;71.10;;;;;;934461;149;27480;-75
2023/03/30 05:30:18;;;;;;;4.80;2.50;;;15.10;71.50;;;;;;933739;149;27379;-75
2023/03/30 05:32:45;;;;;;;7.37;2.80;;;15.10;71.90;;;;;;932683;149;27321;-75
2023/03/30 05:35:12;;;;;;;6.37;2.42;;;15.10;72.30;;;;;;932839;149;27427;-75
2023/03/30 05:37:38;;;;;;;7.28;2.67;;;15.20;72.70;;;;;;932783;149;27418;-75
2023/03/30 05:40:08;;;;;;;4.40;2.15;;;15.20;72.80;;;;;;934175;149;27263;-75
2023/03/30 05:42:32;;;;;;;5.65;2.60;;;15.20;74.20;;;;;;932521;149;27334;-75
2023/03/30 05:44:58;;;;;;;6.70;2.72;;;15.20;73.50;;;;;;933883;149;27300;-75
2023/03/30 05:47:25;;;;;;;7.15;3.37;;;15.20;73.60;;;;;;933752;149;27358;-75
2023/03/30 05:49:51;;;;;;;6.87;2.35;;;15.20;73.90;;;;;;933099;149;27471;-74
2023/03/30 05:52:18;;;;;;;5.45;2.27;;;15.20;74.00;;;;;;932791;149;27359;-74
2023/03/30 05:54:44;;;;;;;5.12;2.52;;;15.20;74.30;;;;;;933493;149;27396;-74
2023/03/30 05:57:11;;;;;;;4.97;2.22;;;15.20;74.60;;;;;;933197;149;27399;-74
2023/03/30 05:59:38;;;;;;;4.70;2.22;;;15.20;74.80;;;;;;934341;149;27395;-75
2023/03/30 06:02:05;;;;;;;7.58;3.15;;;15.20;75.40;;;;;;932530;149;27367;-74
2023/03/30 06:04:31;;;;;;;12.20;3.08;;;15.20;75.50;;;;;;934082;149;27293;-74
2023/03/30 06:06:57;;;;;;;5.90;2.47;;;15.20;76.10;;;;;;926745;149;27384;-74
2023/03/30 06:09:25;;;;;;;10.70;2.60;;;15.20;76.30;;;;;;927007;149;27394;-75
2023/03/30 06:11:51;;;;;;;3.72;2.17;;;15.20;76.40;;;;;;925249;149;27380;-74
2023/03/30 06:14:17;;;;;;;5.47;2.08;;;15.20;76.80;;;;;;929326;149;27338;-74
2023/03/30 06:16:44;;;;;;;5.28;2.90;;;15.20;77.00;;;;;;926555;149;27469;-74
2023/03/30 06:19:11;;;;;;;6.53;2.20;;;15.20;77.10;;;;;;927019;149;27358;-74
2023/03/30 06:21:37;;;;;;;7.20;2.77;;;15.20;77.50;;;;;;926926;149;27456;-74
2023/03/30 06:24:04;;;;;;;7.60;2.65;;;15.20;78.20;;;;;;927125;149;27376;-74
2023/03/30 06:26:30;;;;;;;7.25;2.55;;;15.20;78.40;;;;;;927629;149;27351;-81
2023/03/30 06:28:57;;;;;;;9.78;3.95;;;15.20;78.60;;;;;;927192;149;27318;-81
2023/03/30 06:31:24;;;;;;;4.53;2.22;;;15.20;78.50;;;;;;926682;149;27328;-81
2023/03/30 06:33:50;;;;;;;5.00;3.37;;;15.20;79.10;;;;;;926125;149;27400;-81
2023/03/30 06:36:16;;;;;;;5.45;2.50;;;15.20;79.40;;;;;;926459;149;27364;-81
2023/03/30 06:38:43;;;;;;;7.30;2.80;;;15.30;79.70;;;;;;928140;149;27316;-80
2023/03/30 06:41:11;;;;;;;5.72;2.77;;;15.20;79.80;;;;;;928547;149;27312;-79
2023/03/30 06:43:36;;;;;;;7.42;2.85;;;15.20;81.10;;;;;;928374;149;27327;-81
2023/03/30 06:46:03;;;;;;;3.95;2.10;;;15.20;80.90;;;;;;927385;149;27453;-81
2023/03/30 06:48:29;;;;;;;7.50;2.65;;;15.20;81.70;;;;;;926947;149;27428;-81
2023/03/30 06:50:56;;;;;;;5.80;2.42;;;15.30;82.50;;;;;;927335;149;27312;-81
2023/03/30 06:53:23;;;;;;;6.22;2.67;;;15.20;82.50;;;;;;928676;149;27694;-81
2023/03/30 06:55:52;;;;;;;6.40;2.42;;;15.20;83.60;;;;;;926575;149;27402;-81
2023/03/30 06:58:19;;;;;;;8.70;3.10;;;15.20;83.50;;;;;;926845;149;27373;-81
2023/03/30 07:00:45;;;;;;;6.83;2.70;;;15.30;83.90;;;;;;928070;149;27438;-81
2023/03/30 07:03:12;;;;;;;7.05;2.83;;;15.30;84.20;;;;;;926989;149;27403;-81
2023/03/30 07:05:39;;;;;;;6.53;2.40;;;15.30;84.70;;;;;;925849;149;27328;-80
2023/03/30 07:08:05;;;;;;;8.95;3.50;;;15.30;84.90;;;;;;933630;149;27381;-81
2023/03/30 07:10:32;;;;;;;6.72;2.80;;;15.30;85.40;;;;;;934313;149;27394;-81
2023/03/30 07:12:58;;;;;;;4.50;2.22;;;15.30;85.90;;;;;;934619;149;27444;-80
2023/03/30 07:15:25;;;;;;;3.47;2.33;;;15.30;86.40;;;;;;932046;149;27382;-81
2023/03/30 07:17:52;;;;;;;4.15;2.08;;;15.30;87.10;;;;;;933877;149;27314;-81
2023/03/30 07:20:19;;;;;;;8.00;2.50;;;15.30;87.50;;;;;;934059;149;27414;-81
2023/03/30 07:22:45;;;;;;;6.20;2.77;;;15.40;88.00;;;;;;932981;149;27357;-80
2023/03/30 07:25:12;;;;;;;9.73;2.42;;;15.40;88.30;;;;;;933773;149;27400;-81
2023/03/30 07:27:38;;;;;;;8.08;2.62;;;15.40;89.30;;;;;;933762;149;27314;-81
2023/03/30 07:30:04;;;;;;;5.20;2.60;;;15.40;89.60;;;;;;933293;149;27341;-81
2023/03/30 07:32:31;;;;;;;4.97;2.30;;;15.40;90.10;;;;;;932314;149;27379;-81
2023/03/30 07:34:58;;;;;;;3.72;2.22;;;15.40;90.30;;;;;;933544;149;27359;-81
2023/03/30 07:37:24;;;;;;;6.22;2.92;;;15.40;90.50;;;;;;933627;149;27364;-81
2023/03/30 07:39:51;;;;;;;2.55;1.90;;;15.50;90.80;;;;;;935039;149;27437;-81
2023/03/30 07:42:17;;;;;;;2.77;1.95;;;15.50;91.30;;;;;;932047;149;27389;-80
2023/03/30 07:44:44;;;;;;;4.47;2.12;;;15.60;91.50;;;;;;933662;149;27460;-81
2023/03/30 07:47:11;;;;;;;3.02;1.90;;;15.60;91.40;;;;;;932642;149;27425;-81
2023/03/30 07:49:37;;;;;;;3.72;2.10;;;15.70;91.30;;;;;;933821;149;27254;-81
2023/03/30 07:52:04;;;;;;;3.17;1.98;;;15.80;91.20;;;;;;934595;149;27378;-81
2023/03/30 07:54:30;;;;;;;2.02;1.62;;;15.80;91.50;;;;;;934661;149;27378;-81
2023/03/30 07:56:57;;;;;;;3.00;1.90;;;15.90;91.60;;;;;;931995;149;27473;-79
2023/03/30 07:59:23;;;;;;;4.65;2.08;;;15.90;91.50;;;;;;933139;149;27364;-81
2023/03/30 08:01:50;;;;;;;2.33;1.77;;;16.00;91.50;;;;;;932806;149;27374;-81
2023/03/30 08:04:17;;;;;;;4.05;2.08;;;16.10;91.50;;;;;;932973;149;27467;-81
2023/03/30 08:06:43;;;;;;;2.27;1.55;;;16.10;91.60;;;;;;933960;149;27565;-80
2023/03/30 08:09:10;;;;;;;4.95;1.75;;;16.20;91.90;;;;;;927990;149;27466;-81
2023/03/30 08:11:36;;;;;;;4.33;1.67;;;16.30;91.80;;;;;;926294;149;27325;-80
2023/03/30 08:14:03;;;;;;;5.15;2.45;;;16.40;92.00;;;;;;927212;149;27364;-79
2023/03/30 08:16:30;;;;;;;5.25;2.42;;;16.40;91.70;;;;;;924749;149;27518;-79
2023/03/30 08:18:56;;;;;;;5.20;2.12;;;16.50;91.50;;;;;;926057;149;27417;-80
2023/03/30 08:21:24;;;;;;;4.85;1.90;;;16.60;91.00;;;;;;924668;149;27450;-80
2023/03/30 08:23:49;;;;;;;2.12;1.90;;;16.60;90.80;;;;;;925618;149;27438;-79
2023/03/30 08:26:16;;;;;;;3.05;1.90;;;16.70;90.60;;;;;;924908;149;27403;-79
2023/03/30 08:28:43;;;;;;;3.72;1.92;;;16.70;90.40;;;;;;926777;149;27367;-80
2023/03/30 08:31:12;;;;;;;5.10;2.20;;;16.70;90.30;;;;;;928896;149;27408;-79
2023/03/30 08:33:38;;;;;;;2.22;1.70;;;16.70;90.40;;;;;;926545;149;27319;-80
2023/03/30 08:36:05;;;;;;;3.15;1.70;;;16.80;90.50;;;;;;926384;149;27384;-79
2023/03/30 08:38:31;;;;;;;4.08;2.17;;;16.80;90.60;;;;;;928143;149;27398;-79
2023/03/30 08:40:58;;;;;;;3.40;2.10;;;16.90;90.50;;;;;;927453;149;27386;-79
2023/03/30 08:43:43;;;;;;;3.15;1.75;;;16.90;90.20;;;;;;928191;149;27296;-79
2023/03/30 08:46:10;;;;;;;2.20;1.67;;;17.00;90.20;;;;;;927776;149;27427;-79
2023/03/30 08:48:38;;;;;;;2.60;1.80;;;17.10;90.30;;;;;;927644;149;27355;-79
2023/03/30 08:51:03;;;;;;;3.87;2.00;;;17.10;90.30;;;;;;928236;149;27406;-79
2023/03/30 08:53:29;;;;;;;2.72;2.10;;;17.20;90.70;;;;;;926123;149;27327;-79
2023/03/30 08:55:56;;;;;;;4.15;2.05;;;17.30;90.50;;;;;;926044;149;27343;-79
2023/03/30 08:58:31;;;;;;;2.95;1.87;;;17.40;90.50;;;;;;927024;149;27382;-79
2023/03/30 09:01:22;;;;;;;3.83;2.62;;;17.60;90.20;;;;;;927561;149;27425;-79
2023/03/30 09:03:54;;;;;;;2.40;1.87;;;17.70;89.90;;;;;;927302;149;27351;-79
2023/03/30 09:06:24;;;;;;;2.02;1.82;;;17.80;89.20;;;;;;928221;149;27315;-79
2023/03/30 09:08:51;;;;;;;5.17;2.00;;;17.90;88.70;;;;;;927330;149;27492;-79
2023/03/30 09:11:17;;;;;;;4.45;2.15;;;18.00;88.40;;;;;;927073;150;27376;-79
2023/03/30 09:13:46;;;;;;;6.70;2.02;;;18.20;88.20;;;;;;926533;150;27354;-79
2023/03/30 09:16:13;;;;;;;3.05;1.80;;;18.30;87.00;;;;;;925494;150;27319;-79
2023/03/30 09:18:40;;;;;;;4.15;2.42;;;18.40;86.10;;;;;;925255;150;27460;-79
2023/03/30 09:21:07;;;;;;;2.22;1.98;;;18.50;84.90;;;;;;926898;150;27689;-78
2023/03/30 09:23:34;;;;;;;3.00;1.90;;;18.50;83.70;;;;;;926941;150;27289;-79
2023/03/30 09:26:15;;;;;;;2.62;2.05;;;18.60;83.00;;;;;;925920;150;27934;-80
2023/03/30 09:28:59;;;;;;;4.30;1.70;;;18.60;83.00;;;;;;925928;150;27806;-78
2023/03/30 09:31:31;;;;;;;3.05;2.15;;;18.60;81.80;;;;;;926804;150;27516;-78
2023/03/30 09:34:05;;;;;;;2.85;2.15;;;18.60;81.40;;;;;;928333;150;27379;-78
2023/03/30 09:36:34;;;;;;;2.52;1.55;;;18.50;81.10;;;;;;925635;150;27469;-79
2023/03/30 09:39:00;;;;;;;2.65;2.08;;;18.50;81.20;;;;;;923842;150;27343;-78
2023/03/30 09:41:42;;;;;;;1.77;1.67;;;18.50;81.90;;;;;;925455;150;27457;-79
2023/03/30 09:44:11;;;;;;;2.90;2.05;;;18.60;82.90;;;;;;926929;149;27382;-79
2023/03/30 09:46:39;;;;;;;4.72;2.65;;;18.70;83.70;;;;;;938266;149;27341;-78
2023/03/30 09:49:11;;;;;;;4.30;2.15;;;18.80;83.50;;;;;;936864;149;27352;-78
2023/03/30 09:51:37;;;;;;;2.37;1.60;;;19.00;83.20;;;;;;939838;149;27426;-78
2023/03/30 09:54:05;;;;;;;2.75;1.82;;;19.20;82.80;;;;;;938161;149;27379;-78
2023/03/30 09:56:45;;;;;;;2.85;1.65;;;19.40;81.70;;;;;;939215;149;27325;-78
2023/03/30 09:59:18;;;;;;;2.35;1.60;;;19.50;80.40;;;;;;936808;149;27373;-79
2023/03/30 10:01:45;;;;;;;2.33;1.60;;;19.70;80.50;;;;;;935155;149;27337;-78
2023/03/30 10:04:12;;;;;;;2.83;1.52;;;19.70;78.80;;;;;;937404;149;27361;-79
2023/03/30 10:06:38;;;;;;;2.67;1.37;;;19.80;77.70;;;;;;937149;149;27401;-78
2023/03/30 10:09:05;;;;;;;2.80;1.52;;;19.80;76.90;;;;;;938801;148;27372;-78
2023/03/30 10:11:31;;;;;;;4.10;1.52;;;19.80;76.00;;;;;;937242;149;27381;-79
2023/03/30 10:13:58;;;;;;;3.52;1.57;;;19.70;76.00;;;;;;937324;149;27440;-78
2023/03/30 10:16:25;;;;;;;2.72;1.70;;;19.70;75.20;;;;;;938478;149;27343;-78
2023/03/30 10:19:00;;;;;;;3.83;1.80;;;19.70;75.10;;;;;;934271;149;27375;-78
2023/03/30 10:21:27;;;;;;;3.05;1.65;;;19.60;75.00;;;;;;937220;149;27282;-78
2023/03/30 10:23:59;;;;;;;1.82;1.50;;;19.60;74.70;;;;;;937683;149;27358;-78
2023/03/30 10:26:27;;;;;;;2.15;1.60;;;19.50;74.50;;;;;;936197;149;27406;-78
2023/03/30 10:28:54;;;;;;;1.95;1.65;;;19.50;74.60;;;;;;937316;149;27374;-77
2023/03/30 10:31:19;;;;;;;2.25;1.50;;;19.50;74.40;;;;;;937647;148;27408;-77
2023/03/30 10:33:45;;;;;;;2.72;1.35;;;19.40;74.40;;;;;;938552;149;27281;-78
2023/03/30 10:36:12;;;;;;;3.05;1.82;;;19.40;74.50;;;;;;939713;149;27422;-78
2023/03/30 10:38:38;;;;;;;3.45;2.08;;;19.40;74.50;;;;;;937263;149;27398;-78
2023/03/30 10:41:11;;;;;;;2.75;1.80;;;19.40;74.50;;;;;;937084;149;27495;-78
2023/03/30 10:43:37;;;;;;;2.08;1.40;;;19.40;74.40;;;;;;937368;149;27450;-78
2023/03/30 10:46:07;;;;;;;1.80;1.40;;;19.40;73.60;;;;;;937268;149;27436;-78
2023/03/30 10:48:48;;;;;;;5.42;1.60;;;19.40;73.80;;;;;;936449;149;27368;-78
2023/03/30 10:51:52;;;;;;;2.08;1.67;;;19.50;74.10;;;;;;939250;149;27346;-78
2023/03/30 10:54:25;;;;;;;2.22;1.70;;;19.60;74.40;;;;;;939472;149;27495;-78
2023/03/30 10:56:51;;;;;;;2.90;1.57;;;19.70;74.20;;;;;;938611;149;27413;-77
2023/03/30 10:59:30;;;;;;;3.52;2.60;;;19.80;74.00;;;;;;938603;149;27326;-78
2023/03/30 11:02:33;;;;;;;3.60;2.00;;;20.00;73.60;;;;;;938716;149;27311;-78
2023/03/30 11:05:06;;;;;;;3.87;1.60;;;20.10;72.50;;;;;;939520;149;27344;-78
2023/03/30 11:07:35;;;;;;;4.33;2.12;;;20.30;71.30;;;;;;939842;149;27386;-78
2023/03/30 11:10:05;;;;;;;1.85;1.55;;;20.40;70.50;;;;;;935488;149;27439;-77
2023/03/30 11:12:31;;;;;;;3.12;1.70;;;20.40;70.30;;;;;;938311;148;27454;-78
2023/03/30 11:15:13;;;;;;;3.80;2.67;;;20.50;69.80;;;;;;938272;148;27286;-78
2023/03/30 11:17:39;;;;;;;2.58;1.82;;;20.50;69.10;;;;;;914955;154;27545;-77
2023/03/30 11:20:22;;;;;;;2.90;1.80;;;20.60;68.80;;;;;;925944;148;27366;-77
2023/03/30 11:22:47;;;;;;;2.47;1.87;;;20.60;69.10;;;;;;938001;148;27305;-77
2023/03/30 11:25:23;;;;;;;2.47;1.40;;;20.60;69.30;;;;;;939675;148;27401;-78
2023/03/30 11:27:50;;;;;;;5.05;1.62;;;20.60;69.10;;;;;;939992;148;27370;-78
2023/03/30 11:30:22;;;;;;;1.82;1.70;;;20.70;68.80;;;;;;935873;148;27452;-78
2023/03/30 11:33:19;;;;;;;2.80;1.90;;;20.80;68.80;;;;;;934003;148;27294;-78
2023/03/30 11:35:46;;;;;;;2.92;1.70;;;20.80;68.50;;;;;;940372;148;27366;-78
2023/03/30 11:38:15;;;;;;;2.12;1.50;;;21.00;67.70;;;;;;940446;148;27363;-78
2023/03/30 11:40:47;;;;;;;3.92;1.82;;;21.00;67.90;;;;;;928637;148;27359;-79
2023/03/30 11:43:17;;;;;;;2.33;1.57;;;21.10;67.90;;;;;;937988;148;27470;-78
2023/03/30 11:45:47;;;;;;;2.70;1.80;;;21.20;66.70;;;;;;939978;148;27321;-78
2023/03/30 11:48:18;;;;;;;2.10;1.82;;;21.30;66.30;;;;;;937603;148;27908;-77
2023/03/30 11:50:56;;;;;;;10.50;2.33;;;21.30;66.30;;;;;;938248;148;27297;-78
2023/03/30 11:53:23;;;;;;;2.47;1.40;;;21.30;65.60;;;;;;939213;148;27315;-77
2023/03/30 11:55:52;;;;;;;3.27;1.42;;;21.40;65.00;;;;;;938477;148;27387;-77
2023/03/30 11:58:19;;;;;;;1.50;1.37;;;21.30;64.30;;;;;;935110;148;27384;-77
2023/03/30 12:00:54;;;;;;;3.20;1.50;;;21.30;64.90;;;;;;940154;148;27355;-77
2023/03/30 12:03:38;;;;;;;2.33;1.62;;;21.40;65.10;;;;;;939927;148;27395;-77
2023/03/30 12:06:15;;;;;;;3.70;1.60;;;21.30;65.00;;;;;;938504;148;27441;-77
2023/03/30 12:08:44;;;;;;;3.05;1.75;;;21.40;65.00;;;;;;939471;148;27389;-77
2023/03/30 12:11:13;;;;;;;2.20;1.72;;;21.40;65.30;;;;;;939126;148;27711;-77
2023/03/30 12:13:40;;;;;;;4.42;1.70;;;21.40;63.50;;;;;;939103;148;27280;-78
2023/03/30 12:16:09;;;;;;;5.90;2.05;;;21.40;64.60;;;;;;939473;149;27436;-77
2023/03/30 12:18:42;;;;;;;5.90;2.20;;;21.50;64.90;;;;;;938435;148;27403;-77
2023/03/30 12:21:11;;;;;;;4.95;2.75;;;21.40;64.10;;;;;;939112;148;27338;-77
2023/03/30 12:23:39;;;;;;;5.85;2.70;;;21.50;64.10;;;;;;937936;148;27446;-77
2023/03/30 12:26:26;;;;;;;3.77;1.65;;;21.50;63.20;;;;;;939082;148;27298;-77
2023/03/30 12:28:58;;;;;;;2.45;1.60;;;21.50;63.40;;;;;;939277;148;27409;-78
2023/03/30 12:31:49;;;;;;;2.95;1.60;;;21.50;64.10;;;;;;937272;148;27319;-77
2023/03/30 12:34:15;;;;;;;3.42;1.50;;;21.50;63.80;;;;;;927085;148;27359;-81
2023/03/30 12:36:42;;;;;;;1.65;1.55;;;21.50;63.10;;;;;;940958;148;27341;-82
2023/03/30 12:39:11;;;;;;;3.37;1.60;;;21.60;63.90;;;;;;937978;148;27371;-83
2023/03/30 12:41:41;;;;;;;2.72;1.45;;;21.70;63.90;;;;;;939732;148;27878;-81
2023/03/30 12:44:35;;;;;;;1.65;1.17;;;21.80;63.10;;;;;;938149;148;27444;-82
2023/03/30 12:47:32;;;;;;;3.47;1.50;;;21.80;62.90;;;;;;938210;148;27335;-82
2023/03/30 12:50:20;;;;;;;2.90;1.57;;;22.00;62.80;;;;;;940468;148;27349;-82
2023/03/30 12:53:13;;;;;;;2.02;1.40;;;22.10;62.20;;;;;;939222;148;27318;-82
2023/03/30 12:55:58;;;;;;;1.67;1.47;;;22.10;62.60;;;;;;939376;148;27386;-81
2023/03/30 12:58:43;;;;;;;3.22;1.35;;;22.20;62.20;;;;;;939338;148;27395;-81